Terminal Aerodrome Forecast
Issued by NWS

Home | Current Version | Previous Version | Text Only | Print | Product List | Glossary Off
Versions: 1 2 3 4 5 6 7 8 9 10 11 12 13 14 15 16 17 18 19 20 21 22 23 24

000
FTUS45 KGGW 281100
TAFGDV
TAF
KGDV 281138Z 2812/2912 24022G31KT P6SM BKN020 BKN050
     FM281500 26033G46KT P6SM VCSH BKN018 BKN035
     FM290000 29030G42KT P6SM BKN045 BKN090
     FM290300 29022G30KT P6SM BKN060 BKN140
     FM290600 28016KT P6SM SCT210
      AMD LTD TO CLD VIS AND WIND=

USA.gov is the U.S. government's official web portal to all federal, state and local government web resources and services.